createdAt,value
2019-03-23T00:00:02.249Z,59.30
2019-03-23T00:02:31.750Z,60.00
2019-03-23T00:05:00.251Z,59.40
2019-03-23T00:07:28.469Z,59.70
2019-03-23T00:09:58.669Z,60.10
2019-03-23T00:12:26.824Z,60.00
2019-03-23T00:14:55.076Z,60.30
2019-03-23T00:17:23.380Z,60.30
2019-03-23T00:19:52.646Z,60.30
2019-03-23T00:22:20.953Z,60.40
2019-03-23T00:24:49.310Z,60.30
2019-03-23T00:27:17.649Z,60.30
2019-03-23T00:29:45.912Z,60.40
2019-03-23T00:32:14.339Z,60.70
2019-03-23T00:34:42.618Z,60.60
2019-03-23T00:37:10.900Z,60.90
2019-03-23T00:39:39.097Z,61.10
2019-03-23T00:42:07.350Z,60.90
2019-03-23T00:44:35.764Z,60.80
2019-03-23T00:47:03.899Z,60.90
2019-03-23T00:49:32.195Z,60.90
2019-03-23T00:52:00.433Z,60.90
2019-03-23T00:54:28.700Z,60.90
2019-03-23T00:56:57.008Z,61.40
2019-03-23T00:59:25.298Z,61.60
2019-03-23T01:01:53.612Z,61.60
2019-03-23T01:04:21.884Z,62.80
2019-03-23T01:06:52.312Z,63.90
2019-03-23T01:09:20.308Z,64.20
2019-03-23T01:11:48.566Z,66.40
2019-03-23T01:14:16.890Z,66.00
2019-03-23T01:16:45.205Z,66.60
2019-03-23T01:19:13.467Z,66.50
2019-03-23T01:21:43.874Z,66.20
2019-03-23T01:24:12.025Z,65.50
2019-03-23T01:26:40.329Z,64.90
2019-03-23T01:29:09.044Z,65.00
2019-03-23T01:31:37.278Z,65.60
2019-03-23T01:34:05.481Z,65.70
2019-03-23T01:36:33.849Z,65.60
2019-03-23T01:39:02.675Z,65.70
2019-03-23T01:41:30.988Z,65.30
2019-03-23T01:43:59.218Z,64.70
2019-03-23T01:46:27.460Z,64.50
2019-03-23T01:48:55.656Z,64.20
2019-03-23T01:51:23.978Z,64.40
2019-03-23T01:53:52.739Z,65.00
2019-03-23T01:56:21.103Z,66.20
2019-03-23T01:58:51.266Z,66.30
2019-03-23T02:01:19.589Z,66.00
2019-03-23T02:03:47.679Z,65.80
2019-03-23T02:06:16.017Z,66.00
2019-03-23T02:08:44.320Z,67.80
2019-03-23T02:11:12.638Z,70.30
2019-03-23T02:13:40.980Z,71.10
2019-03-23T02:16:09.241Z,70.10
2019-03-23T02:18:37.538Z,70.00
2019-03-23T02:21:05.914Z,72.10
2019-03-23T02:23:34.198Z,71.20
2019-03-23T02:26:02.536Z,71.30
2019-03-23T02:28:30.957Z,71.50
2019-03-23T02:30:59.865Z,71.40
2019-03-23T02:33:28.180Z,70.00
2019-03-23T02:35:56.599Z,69.80
2019-03-23T02:38:25.109Z,70.10
2019-03-23T02:40:53.411Z,70.70
2019-03-23T02:43:21.729Z,71.60
2019-03-23T02:45:50.247Z,72.00
2019-03-23T02:48:18.522Z,72.80
2019-03-23T02:50:46.964Z,73.20
2019-03-23T02:53:15.427Z,73.40
2019-03-23T02:55:43.842Z,73.00
2019-03-23T02:58:12.055Z,73.40
2019-03-23T03:00:40.362Z,73.20
2019-03-23T03:03:08.640Z,72.70
2019-03-23T03:05:36.869Z,73.10
2019-03-23T03:08:05.530Z,74.80
2019-03-23T03:10:38.801Z,74.60
2019-03-23T03:13:07.281Z,75.00
2019-03-23T03:15:35.543Z,75.50
2019-03-23T03:18:03.931Z,76.40
2019-03-23T03:20:32.246Z,77.90
2019-03-23T03:23:00.714Z,78.90
2019-03-23T03:25:29.084Z,79.00
2019-03-23T03:27:58.604Z,77.70
2019-03-23T03:30:26.847Z,77.60
2019-03-23T03:32:55.244Z,78.00
2019-03-23T03:35:24.168Z,78.90
2019-03-23T03:37:56.921Z,79.80
2019-03-23T03:40:22.993Z,80.20
2019-03-23T03:42:54.234Z,80.10
2019-03-23T03:45:24.210Z,79.30
2019-03-23T03:47:55.102Z,78.70
2019-03-23T03:50:23.448Z,78.70
2019-03-23T03:52:51.675Z,79.90
2019-03-23T03:55:20.134Z,80.30
2019-03-23T03:57:48.508Z,80.70
2019-03-23T04:00:17.020Z,81.00
2019-03-23T04:02:45.416Z,82.00
2019-03-23T04:05:14.493Z,81.70
2019-03-23T04:07:42.868Z,81.00
2019-03-23T04:10:11.154Z,82.30
2019-03-23T04:12:39.584Z,81.90
2019-03-23T04:15:08.618Z,81.90
2019-03-23T04:17:36.901Z,81.30
2019-03-23T04:20:05.396Z,81.20
2019-03-23T04:22:33.795Z,81.30
2019-03-23T04:25:02.216Z,81.80
2019-03-23T04:27:30.466Z,82.20
2019-03-23T04:29:59.531Z,82.50
2019-03-23T04:32:27.849Z,82.40
2019-03-23T04:34:58.622Z,82.40
2019-03-23T04:37:29.117Z,82.30
2019-03-23T04:39:57.488Z,82.30
2019-03-23T04:42:25.793Z,82.50
2019-03-23T04:44:54.062Z,82.80
2019-03-23T04:47:22.389Z,82.80
2019-03-23T04:49:51.984Z,83.10
2019-03-23T04:52:20.181Z,83.10
2019-03-23T04:54:48.433Z,83.50
2019-03-23T04:57:16.676Z,83.60
2019-03-23T04:59:45.001Z,83.60
2019-03-23T05:02:13.226Z,83.80
2019-03-23T05:04:41.450Z,84.00
2019-03-23T05:07:09.822Z,84.10
2019-03-23T05:09:37.949Z,84.20
2019-03-23T05:12:06.450Z,84.30
2019-03-23T05:14:34.643Z,84.40
2019-03-23T05:17:03.062Z,84.30
2019-03-23T05:19:31.643Z,84.70
2019-03-23T05:21:59.848Z,85.20
2019-03-23T05:24:28.159Z,84.60
2019-03-23T05:26:56.350Z,84.10
2019-03-23T05:29:24.642Z,83.80
2019-03-23T05:31:53.179Z,83.70
2019-03-23T05:34:21.366Z,83.80
2019-03-23T05:36:49.668Z,83.50
2019-03-23T05:39:17.949Z,83.70
2019-03-23T05:41:46.259Z,83.50
2019-03-23T05:44:14.528Z,80.60
2019-03-23T05:46:42.829Z,79.00
2019-03-23T05:49:11.077Z,79.90
2019-03-23T05:51:39.366Z,80.40
2019-03-23T05:54:07.549Z,80.00
2019-03-23T05:56:35.774Z,78.60
2019-03-23T05:59:14.284Z,76.50
2019-03-23T06:01:42.588Z,74.30
2019-03-23T06:04:10.874Z,73.40
2019-03-23T06:06:39.244Z,73.80
2019-03-23T06:09:07.596Z,72.80
2019-03-23T06:11:35.798Z,72.30
2019-03-23T06:14:04.501Z,71.80
2019-03-23T06:16:32.733Z,70.50
2019-03-23T06:19:00.987Z,69.00
2019-03-23T06:21:29.450Z,67.90
2019-03-23T06:23:57.751Z,66.70
2019-03-23T06:26:26.101Z,66.70
2019-03-23T06:28:54.496Z,66.20
2019-03-23T06:31:22.694Z,65.10
2019-03-23T06:33:51.100Z,64.60
2019-03-23T06:36:19.298Z,63.90
2019-03-23T06:38:47.537Z,63.00
2019-03-23T06:41:15.875Z,62.10
2019-03-23T06:43:45.529Z,61.50
2019-03-23T06:46:13.718Z,60.80
2019-03-23T06:48:41.955Z,60.80
2019-03-23T06:51:10.248Z,60.40
2019-03-23T06:53:38.456Z,60.40
2019-03-23T06:56:07.064Z,59.80
2019-03-23T06:58:35.600Z,60.00
2019-03-23T07:01:04.912Z,60.10
2019-03-23T07:03:35.561Z,58.20
2019-03-23T07:06:04.464Z,57.30
2019-03-23T07:08:33.960Z,56.60
2019-03-23T07:11:02.136Z,56.20
2019-03-23T07:13:32.879Z,55.80
2019-03-23T07:16:03.943Z,54.80
2019-03-23T07:18:32.137Z,54.60
2019-03-23T07:21:00.430Z,53.90
2019-03-23T07:23:28.667Z,53.10
2019-03-23T07:26:04.781Z,53.00
2019-03-23T07:28:28.965Z,53.20
2019-03-23T07:30:57.491Z,52.60
2019-03-23T07:33:25.857Z,52.30
2019-03-23T07:35:54.744Z,51.90
2019-03-23T07:38:23.245Z,51.70
2019-03-23T07:40:51.749Z,52.00
2019-03-23T07:43:22.924Z,52.30
2019-03-23T07:45:51.200Z,51.50
2019-03-23T07:48:19.547Z,51.40
2019-03-23T07:50:47.878Z,51.40
2019-03-23T07:53:16.424Z,50.70
2019-03-23T07:55:46.502Z,51.10
2019-03-23T07:58:14.792Z,51.80
2019-03-23T08:00:44.149Z,50.10
2019-03-23T08:03:13.774Z,48.00
2019-03-23T08:05:43.309Z,48.70
2019-03-23T08:08:11.577Z,48.00
2019-03-23T08:10:39.957Z,47.40
2019-03-23T08:13:08.243Z,46.50
2019-03-23T08:15:37.773Z,45.20
2019-03-23T08:18:06.201Z,46.10
2019-03-23T08:20:34.856Z,43.00
2019-03-23T08:23:03.259Z,40.60
2019-03-23T08:25:32.066Z,39.10
2019-03-23T08:28:03.733Z,38.40
2019-03-23T08:30:32.257Z,38.90
2019-03-23T08:33:01.760Z,39.20
2019-03-23T08:35:30.294Z,38.40
2019-03-23T08:37:58.928Z,38.90
2019-03-23T08:40:27.249Z,39.50
2019-03-23T08:42:56.941Z,38.40
2019-03-23T08:45:25.088Z,38.40
2019-03-23T08:47:53.317Z,39.10
2019-03-23T08:50:21.484Z,37.90
2019-03-23T08:52:49.774Z,36.30
2019-03-23T08:55:18.076Z,36.50
2019-03-23T08:57:49.174Z,36.10
2019-03-23T09:00:17.409Z,35.70
2019-03-23T09:02:45.747Z,35.10
2019-03-23T09:05:13.916Z,36.50
2019-03-23T09:07:42.193Z,36.80
2019-03-23T09:10:12.309Z,36.50
2019-03-23T09:12:40.610Z,35.80
2019-03-23T09:15:08.952Z,35.30
2019-03-23T09:17:37.184Z,35.30
2019-03-23T09:20:06.340Z,34.40
2019-03-23T09:22:34.488Z,34.90
2019-03-23T09:25:02.785Z,34.00
2019-03-23T09:27:31.519Z,34.60
2019-03-23T09:29:59.875Z,34.30
2019-03-23T09:32:28.392Z,34.60
2019-03-23T09:34:56.723Z,34.30
2019-03-23T09:37:25.244Z,34.50
2019-03-23T09:39:53.781Z,34.40
2019-03-23T09:42:22.010Z,35.20
2019-03-23T09:44:50.416Z,33.90
2019-03-23T09:47:18.677Z,34.30
2019-03-23T09:49:46.886Z,34.50
2019-03-23T09:52:15.161Z,34.60
2019-03-23T09:54:43.382Z,34.70
2019-03-23T09:57:11.852Z,34.90
2019-03-23T09:59:41.442Z,35.00
2019-03-23T10:02:09.883Z,34.90
2019-03-23T10:04:38.224Z,35.40
2019-03-23T10:07:06.571Z,35.60
2019-03-23T10:09:34.980Z,35.00
2019-03-23T10:12:04.243Z,34.30
2019-03-23T10:14:32.542Z,34.80
2019-03-23T10:17:00.921Z,35.50
2019-03-23T10:19:31.040Z,35.00
2019-03-23T10:21:59.277Z,35.20
2019-03-23T10:24:27.576Z,34.40
2019-03-23T10:26:55.854Z,34.20
2019-03-23T10:29:24.163Z,34.10
2019-03-23T10:31:52.416Z,34.10
2019-03-23T10:34:20.755Z,34.50
2019-03-23T10:36:48.974Z,33.90
2019-03-23T10:39:17.243Z,34.50
2019-03-23T10:41:45.730Z,34.10
2019-03-23T10:44:13.996Z,33.40
2019-03-23T10:46:42.240Z,34.00
2019-03-23T10:49:10.568Z,34.50
2019-03-23T10:51:38.910Z,34.40
2019-03-23T10:54:07.161Z,34.30
2019-03-23T10:56:35.478Z,34.90
2019-03-23T10:59:03.702Z,35.10
2019-03-23T11:01:32.065Z,35.70
2019-03-23T11:04:00.436Z,35.70
2019-03-23T11:06:28.641Z,35.30
2019-03-23T11:08:56.963Z,36.20
2019-03-23T11:11:25.287Z,35.80
2019-03-23T11:13:53.477Z,35.60
2019-03-23T11:16:21.831Z,34.90
2019-03-23T11:18:50.087Z,36.00
2019-03-23T11:21:20.528Z,34.90
2019-03-23T11:23:48.767Z,35.10
2019-03-23T11:26:17.009Z,34.30
2019-03-23T11:28:45.234Z,34.80
2019-03-23T11:31:14.434Z,35.10
2019-03-23T11:33:42.722Z,34.90
2019-03-23T11:36:11.015Z,34.50
2019-03-23T11:38:39.354Z,35.00
2019-03-23T11:41:07.740Z,34.20
2019-03-23T11:43:36.147Z,34.90
2019-03-23T11:46:04.492Z,34.50
2019-03-23T11:48:32.862Z,33.90
2019-03-23T11:51:01.094Z,34.10
2019-03-23T11:53:30.652Z,34.10
2019-03-23T11:55:58.936Z,33.80
2019-03-23T11:58:27.740Z,34.20
2019-03-23T12:00:56.038Z,34.30
2019-03-23T12:03:24.313Z,34.50
2019-03-23T12:05:52.745Z,34.70
2019-03-23T12:08:20.953Z,34.80
2019-03-23T12:10:49.664Z,33.60
2019-03-23T12:13:18.038Z,34.40
2019-03-23T12:15:46.378Z,34.50
2019-03-23T12:18:14.674Z,34.00
2019-03-23T12:20:42.902Z,33.50
2019-03-23T12:23:11.237Z,33.60
2019-03-23T12:25:39.422Z,33.20
2019-03-23T12:28:07.735Z,34.20
2019-03-23T12:30:36.044Z,33.90
2019-03-23T12:33:04.442Z,34.60
2019-03-23T12:35:32.829Z,33.40
2019-03-23T12:38:01.246Z,33.80
2019-03-23T12:40:29.513Z,34.00
2019-03-23T12:42:57.860Z,33.60
2019-03-23T12:45:26.354Z,33.70
2019-03-23T12:47:54.654Z,33.80
2019-03-23T12:50:22.927Z,33.80
2019-03-23T12:52:57.318Z,33.70
2019-03-23T12:55:23.575Z,34.10
2019-03-23T12:57:51.792Z,34.00
2019-03-23T13:00:20.177Z,33.30
2019-03-23T13:02:48.548Z,33.60
2019-03-23T13:05:16.794Z,33.30
2019-03-23T13:07:44.965Z,32.40
2019-03-23T13:10:13.625Z,33.20
2019-03-23T13:12:42.171Z,32.90
2019-03-23T13:15:10.863Z,33.20
2019-03-23T13:17:39.212Z,33.30
2019-03-23T13:20:08.790Z,32.50
2019-03-23T13:22:37.083Z,32.20
2019-03-23T13:25:06.955Z,32.40
2019-03-23T13:27:35.218Z,32.80
2019-03-23T13:30:04.024Z,32.80
2019-03-23T13:32:32.321Z,32.40
2019-03-23T13:35:02.171Z,32.30
2019-03-23T13:37:30.385Z,33.00
2019-03-23T13:39:58.726Z,33.00
2019-03-23T13:42:26.942Z,32.70
2019-03-23T13:44:56.544Z,32.50
2019-03-23T13:47:24.865Z,32.40
2019-03-23T13:49:53.099Z,32.40
2019-03-23T13:52:21.322Z,32.00
2019-03-23T13:54:49.569Z,32.00
2019-03-23T13:57:17.911Z,32.00
2019-03-23T13:59:46.742Z,31.40
2019-03-23T14:02:14.977Z,32.00
2019-03-23T14:04:43.234Z,32.60
2019-03-23T14:07:11.442Z,32.70
2019-03-23T14:09:39.726Z,32.60
2019-03-23T14:12:09.544Z,33.00
2019-03-23T14:14:37.892Z,32.60
2019-03-23T14:17:06.532Z,32.70
2019-03-23T14:19:34.773Z,33.10
2019-03-23T14:22:03.286Z,34.10
2019-03-23T14:24:33.384Z,33.50
2019-03-23T14:27:03.549Z,33.60
2019-03-23T14:29:34.601Z,33.60
2019-03-23T14:32:03.177Z,33.80
2019-03-23T14:34:31.480Z,34.30
2019-03-23T14:36:59.706Z,34.50
2019-03-23T14:39:27.969Z,34.20
2019-03-23T14:42:04.897Z,34.60
2019-03-23T14:44:29.524Z,34.80
2019-03-23T14:46:57.922Z,34.60
2019-03-23T14:49:26.316Z,34.70
2019-03-23T14:51:54.842Z,35.10
2019-03-23T14:54:24.377Z,34.80
2019-03-23T14:56:52.648Z,35.10
2019-03-23T14:59:20.975Z,35.40
2019-03-23T15:01:49.295Z,35.30
2019-03-23T15:04:17.550Z,35.30
2019-03-23T15:06:46.062Z,35.10
2019-03-23T15:09:14.448Z,35.20
2019-03-23T15:11:42.690Z,36.10
2019-03-23T15:14:10.905Z,35.40
2019-03-23T15:16:41.015Z,35.30
2019-03-23T15:19:09.583Z,35.50
2019-03-23T15:21:38.961Z,35.50
2019-03-23T15:24:07.362Z,36.30
2019-03-23T15:26:35.671Z,35.50
2019-03-23T15:29:04.106Z,35.70
2019-03-23T15:31:33.325Z,36.30
2019-03-23T15:34:04.068Z,36.60
2019-03-23T15:36:32.374Z,36.20
2019-03-23T15:39:01.058Z,36.70
2019-03-23T15:41:29.541Z,36.50
2019-03-23T15:44:02.807Z,36.90
2019-03-23T15:46:31.094Z,37.00
2019-03-23T15:48:59.530Z,37.20
2019-03-23T15:51:28.112Z,37.30
2019-03-23T15:53:56.894Z,38.00
2019-03-23T15:56:26.282Z,38.00
2019-03-23T15:58:55.838Z,37.80
2019-03-23T16:01:24.160Z,38.40
2019-03-23T16:03:52.735Z,38.00
2019-03-23T16:06:21.145Z,37.70
2019-03-23T16:08:49.478Z,37.60
2019-03-23T16:11:17.817Z,37.90
2019-03-23T16:13:46.111Z,37.50
2019-03-23T16:16:14.319Z,37.20
2019-03-23T16:18:44.600Z,37.20
2019-03-23T16:21:15.568Z,37.30
2019-03-23T16:23:44.314Z,37.50
2019-03-23T16:26:12.753Z,37.40
2019-03-23T16:28:45.522Z,37.50
2019-03-23T16:31:14.840Z,38.00
2019-03-23T16:33:43.335Z,38.50
2019-03-23T16:36:15.734Z,38.60
2019-03-23T16:38:44.412Z,38.80
2019-03-23T16:41:12.837Z,39.50
2019-03-23T16:43:41.102Z,39.70
2019-03-23T16:46:09.497Z,39.80
2019-03-23T16:48:37.975Z,40.20
2019-03-23T16:51:06.357Z,40.70
2019-03-23T16:53:34.827Z,40.90
2019-03-23T16:56:05.585Z,41.40
2019-03-23T16:58:35.234Z,41.90
2019-03-23T17:01:03.752Z,42.20
2019-03-23T17:03:32.326Z,42.40
2019-03-23T17:06:00.527Z,42.60
2019-03-23T17:08:28.917Z,42.80
2019-03-23T17:10:57.284Z,43.40
2019-03-23T17:13:25.741Z,43.60
2019-03-23T17:15:54.740Z,43.70
2019-03-23T17:18:23.141Z,44.10
2019-03-23T17:20:51.628Z,44.80
2019-03-23T17:23:19.915Z,45.00
2019-03-23T17:25:48.293Z,44.90
2019-03-23T17:28:16.666Z,45.10
2019-03-23T17:30:45.394Z,45.50
2019-03-23T17:33:14.219Z,46.00
2019-03-23T17:35:42.491Z,46.10
2019-03-23T17:38:10.834Z,46.00
2019-03-23T17:40:39.091Z,46.60
2019-03-23T17:43:07.749Z,46.70
2019-03-23T17:45:35.980Z,46.70
2019-03-23T17:48:07.219Z,46.60
2019-03-23T17:50:35.568Z,46.20
2019-03-23T17:53:04.962Z,46.30
2019-03-23T17:55:33.458Z,46.30
2019-03-23T17:58:01.709Z,46.30
2019-03-23T18:00:32.122Z,46.40
2019-03-23T18:03:00.651Z,46.50
2019-03-23T18:05:28.981Z,47.00
2019-03-23T18:07:57.501Z,47.30
2019-03-23T18:10:28.109Z,47.60
2019-03-23T18:12:56.174Z,47.80
2019-03-23T18:15:24.959Z,48.10
2019-03-23T18:17:53.402Z,48.30
2019-03-23T18:20:21.822Z,48.20
2019-03-23T18:22:50.098Z,48.50
2019-03-23T18:25:18.537Z,49.30
2019-03-23T18:27:46.829Z,49.60
2019-03-23T18:30:52.651Z,50.20
2019-03-23T18:33:22.871Z,50.80
2019-03-23T18:35:51.209Z,51.00
2019-03-23T18:38:19.502Z,51.70
2019-03-23T18:40:47.861Z,51.60
2019-03-23T18:43:26.706Z,51.70
2019-03-23T18:45:46.549Z,52.30
2019-03-23T18:48:14.770Z,52.20
2019-03-23T18:50:44.623Z,52.10
2019-03-23T18:53:12.943Z,52.20
2019-03-23T18:55:41.156Z,51.90
2019-03-23T18:58:12.509Z,52.40
2019-03-23T19:00:42.246Z,52.60
2019-03-23T19:03:11.583Z,52.30
2019-03-23T19:05:39.849Z,52.10
2019-03-23T19:08:08.217Z,52.30
2019-03-23T19:10:37.897Z,53.00
2019-03-23T19:13:06.495Z,53.00
2019-03-23T19:15:34.854Z,53.90
2019-03-23T19:18:03.322Z,53.70
2019-03-23T19:20:31.628Z,53.70
2019-03-23T19:23:01.318Z,53.90
2019-03-23T19:25:29.682Z,53.80
2019-03-23T19:27:58.027Z,53.60
2019-03-23T19:30:26.369Z,53.60
2019-03-23T19:32:54.820Z,53.70
2019-03-23T19:35:23.259Z,53.70
2019-03-23T19:37:51.627Z,53.80
2019-03-23T19:40:19.866Z,54.00
2019-03-23T19:42:48.228Z,54.40
2019-03-23T19:45:16.522Z,55.00
2019-03-23T19:47:44.752Z,55.20
2019-03-23T19:50:13.000Z,55.10
2019-03-23T19:52:41.300Z,55.50
2019-03-23T19:55:09.960Z,55.60
2019-03-23T19:57:38.258Z,55.60
2019-03-23T20:00:08.707Z,55.60
2019-03-23T20:02:37.090Z,55.60
2019-03-23T20:05:07.823Z,56.00
2019-03-23T20:07:37.923Z,56.10
2019-03-23T20:10:06.502Z,56.40
2019-03-23T20:12:34.896Z,56.80
2019-03-23T20:15:03.609Z,56.80
2019-03-23T20:17:32.152Z,57.20
2019-03-23T20:20:00.497Z,57.20
2019-03-23T20:22:28.977Z,57.30
2019-03-23T20:24:57.257Z,57.30
2019-03-23T20:27:28.554Z,57.40
2019-03-23T20:29:56.791Z,57.50
2019-03-23T20:32:26.327Z,57.80
2019-03-23T20:34:54.584Z,58.20
2019-03-23T20:37:22.882Z,58.40
2019-03-23T20:39:51.329Z,58.50
2019-03-23T20:42:19.819Z,58.70
2019-03-23T20:44:48.185Z,58.70
2019-03-23T20:47:16.496Z,59.00
2019-03-23T20:49:44.804Z,59.00
2019-03-23T20:52:13.117Z,59.00
2019-03-23T20:54:41.320Z,59.10
2019-03-23T20:57:09.581Z,59.70
2019-03-23T20:59:37.785Z,60.00
2019-03-23T21:02:06.133Z,60.20
2019-03-23T21:04:34.548Z,60.20
2019-03-23T21:07:02.852Z,60.40
2019-03-23T21:09:31.360Z,60.40
2019-03-23T21:11:59.658Z,60.60
2019-03-23T21:14:28.252Z,60.70
2019-03-23T21:16:56.479Z,61.00
2019-03-23T21:19:24.752Z,61.00
2019-03-23T21:21:53.365Z,61.20
2019-03-23T21:24:22.063Z,61.00
2019-03-23T21:26:50.976Z,61.00
2019-03-23T21:29:19.339Z,60.90
2019-03-23T21:31:49.218Z,61.20
2019-03-23T21:34:17.828Z,61.40
2019-03-23T21:36:46.313Z,61.70
2019-03-23T21:39:14.628Z,62.00
2019-03-23T21:41:43.876Z,62.50
2019-03-23T21:44:12.349Z,63.00
2019-03-23T21:46:40.980Z,63.10
2019-03-23T21:49:09.430Z,62.80
2019-03-23T21:51:37.805Z,62.90
2019-03-23T21:54:06.285Z,63.10
2019-03-23T21:56:34.520Z,62.90
2019-03-23T21:59:02.989Z,62.90
2019-03-23T22:01:31.235Z,63.10
2019-03-23T22:04:01.041Z,63.00
2019-03-23T22:06:29.417Z,63.10
2019-03-23T22:08:57.968Z,63.00
2019-03-23T22:11:26.291Z,63.10
2019-03-23T22:13:54.594Z,63.10
2019-03-23T22:16:26.102Z,63.10
2019-03-23T22:18:54.508Z,63.50
2019-03-23T22:21:25.279Z,63.40
2019-03-23T22:23:53.407Z,63.40
2019-03-23T22:26:21.858Z,63.40
2019-03-23T22:28:50.150Z,63.60
2019-03-23T22:31:21.461Z,64.10
2019-03-23T22:33:51.098Z,64.50
2019-03-23T22:36:19.255Z,65.10
2019-03-23T22:38:49.125Z,64.80
2019-03-23T22:41:17.237Z,64.90
2019-03-23T22:43:45.396Z,65.70
2019-03-23T22:46:13.517Z,66.10
2019-03-23T22:48:41.755Z,66.20
2019-03-23T22:51:10.221Z,67.30
2019-03-23T22:53:38.444Z,67.50
2019-03-23T22:56:06.652Z,68.70
2019-03-23T22:58:34.930Z,68.30
2019-03-23T23:01:03.775Z,68.00
2019-03-23T23:03:32.736Z,68.60
2019-03-23T23:06:01.255Z,68.80
2019-03-23T23:08:30.228Z,68.60
2019-03-23T23:10:58.875Z,68.00
2019-03-23T23:13:27.167Z,67.70
2019-03-23T23:15:55.671Z,67.20
2019-03-23T23:18:23.955Z,67.20
2019-03-23T23:20:52.378Z,66.50
2019-03-23T23:23:20.751Z,66.20
2019-03-23T23:25:49.064Z,65.60
2019-03-23T23:28:17.380Z,65.40
2019-03-23T23:30:45.720Z,65.40
2019-03-23T23:33:14.133Z,64.90
2019-03-23T23:35:42.570Z,64.40
2019-03-23T23:38:11.068Z,64.00
2019-03-23T23:40:39.331Z,63.90
2019-03-23T23:43:07.453Z,63.70
2019-03-23T23:45:36.053Z,63.30
2019-03-23T23:48:05.311Z,63.30
2019-03-23T23:50:33.598Z,63.50
2019-03-23T23:53:01.783Z,63.60
2019-03-23T23:55:29.946Z,63.80
2019-03-23T23:57:58.278Z,63.60
